Time;durP1;ratioP1;P1;durP2;ratioP2;P2;SDS_P1;SDS_P2;PMS_P1;PMS_P2;Temp;Humidity;BMP_temperature;BMP_pressure;BME280_temperature;BME280_humidity;BME280_pressure;Samples;Min_cycle;Max_cycle;Signal;HPM_P1;HPM_P2
2023/03/21 00:00:27;;;;;;;0.70;0.60;;;8.80;93.90;;;;;;5010815;28;20034;-77
2023/03/21 00:02:52;;;;;;;0.50;0.47;;;8.80;93.90;;;;;;5017049;28;20022;-78
2023/03/21 00:05:19;;;;;;;0.80;0.73;;;8.80;93.90;;;;;;5015361;28;20018;-77
2023/03/21 00:07:45;;;;;;;0.50;0.50;;;8.80;93.80;;;;;;4996903;28;20046;-79
2023/03/21 00:10:11;;;;;;;0.68;0.65;;;8.80;93.90;;;;;;4979988;28;20034;-77
2023/03/21 00:12:37;;;;;;;0.77;0.40;;;8.80;94.00;;;;;;4979773;28;20148;-78
2023/03/21 00:15:07;;;;;;;0.63;0.57;;;8.70;94.00;;;;;;4996089;28;20031;-77
2023/03/21 00:17:34;;;;;;;1.42;0.90;;;8.70;94.10;;;;;;4994987;28;20026;-78
2023/03/21 00:20:05;;;;;;;0.77;0.77;;;8.70;94.20;;;;;;4979063;28;20031;-78
2023/03/21 00:22:34;;;;;;;1.13;0.73;;;8.70;94.40;;;;;;4979058;28;20023;-78
2023/03/21 00:25:00;;;;;;;0.63;0.45;;;8.70;94.40;;;;;;4997419;28;20029;-78
2023/03/21 00:27:26;;;;;;;0.40;0.40;;;8.70;94.50;;;;;;4996483;28;20069;-78
2023/03/21 00:29:52;;;;;;;0.88;0.80;;;8.70;94.50;;;;;;5007039;28;20070;-77
2023/03/21 00:32:20;;;;;;;0.65;0.60;;;8.70;94.50;;;;;;5016459;28;20057;-76
2023/03/21 00:34:46;;;;;;;0.77;0.60;;;8.70;94.60;;;;;;5014594;28;20033;-77
2023/03/21 00:37:15;;;;;;;0.60;0.60;;;8.70;94.70;;;;;;5006908;28;20038;-77
2023/03/21 00:39:43;;;;;;;0.68;0.68;;;8.80;94.80;;;;;;4996596;28;20479;-78
2023/03/21 00:42:09;;;;;;;0.65;0.60;;;8.80;94.80;;;;;;4996781;28;20030;-77
2023/03/21 00:44:35;;;;;;;0.65;0.43;;;8.90;94.80;;;;;;4997570;28;20025;-77
2023/03/21 00:47:04;;;;;;;0.68;0.60;;;8.80;94.70;;;;;;4994964;28;20070;-76
2023/03/21 00:49:33;;;;;;;0.50;0.50;;;8.90;94.80;;;;;;4980299;28;20033;-78
2023/03/21 00:52:05;;;;;;;0.32;0.32;;;8.90;94.70;;;;;;4979888;28;20086;-77
2023/03/21 00:54:35;;;;;;;0.60;0.50;;;8.90;94.70;;;;;;4980020;28;20034;-78
2023/03/21 00:57:01;;;;;;;0.50;0.50;;;8.90;94.80;;;;;;4979663;28;20027;-76
2023/03/21 00:59:28;;;;;;;0.35;0.32;;;8.90;94.80;;;;;;5003022;28;21537;-78
2023/03/21 01:01:53;;;;;;;0.52;0.52;;;9.00;94.80;;;;;;5008268;28;20094;-77
2023/03/21 01:04:20;;;;;;;1.17;0.65;;;8.90;94.80;;;;;;5013250;28;20019;-76
2023/03/21 01:06:47;;;;;;;0.88;0.70;;;9.00;94.80;;;;;;5012697;28;20019;-77
2023/03/21 01:09:23;;;;;;;0.73;0.60;;;9.00;94.80;;;;;;4979847;28;20029;-76
2023/03/21 01:11:49;;;;;;;0.60;0.57;;;9.00;94.80;;;;;;4994791;28;20030;-76
2023/03/21 01:14:17;;;;;;;0.60;0.60;;;9.00;94.80;;;;;;4990988;28;20379;-78
2023/03/21 01:16:43;;;;;;;0.47;0.40;;;9.00;94.80;;;;;;4987095;28;20278;-78
2023/03/21 01:19:12;;;;;;;0.50;0.50;;;9.10;94.80;;;;;;4993935;28;20026;-77
2023/03/21 01:21:38;;;;;;;0.45;0.43;;;9.10;94.80;;;;;;5001722;28;20046;-79
2023/03/21 01:24:05;;;;;;;0.38;0.38;;;9.10;94.80;;;;;;5000235;28;20023;-77
2023/03/21 01:26:30;;;;;;;0.50;0.50;;;9.10;94.80;;;;;;5000436;28;20498;-78
2023/03/21 01:28:56;;;;;;;0.98;0.50;;;9.10;94.80;;;;;;4988613;28;20074;-77
2023/03/21 01:31:22;;;;;;;0.38;0.38;;;9.00;94.90;;;;;;5007314;28;20018;-78
2023/03/21 01:33:47;;;;;;;0.38;0.38;;;9.10;95.00;;;;;;4984267;28;20479;-77
2023/03/21 01:36:24;;;;;;;0.40;0.40;;;9.10;94.90;;;;;;5001638;28;20026;-77
2023/03/21 01:38:50;;;;;;;0.35;0.35;;;9.10;94.90;;;;;;5000853;28;20459;-77
2023/03/21 01:41:31;;;;;;;0.20;0.20;;;9.10;94.90;;;;;;4999817;28;20038;-78
2023/03/21 01:43:58;;;;;;;0.40;0.40;;;9.20;94.90;;;;;;5000309;28;20022;-76
2023/03/21 01:46:31;;;;;;;0.40;0.35;;;9.20;94.90;;;;;;5000875;28;20022;-79
2023/03/21 01:49:01;;;;;;;0.20;0.20;;;9.20;94.80;;;;;;4998202;28;20029;-78
2023/03/21 01:51:31;;;;;;;0.32;0.32;;;9.20;94.80;;;;;;4963322;28;20019;-78
2023/03/21 01:53:57;;;;;;;0.30;0.30;;;9.20;94.80;;;;;;4979825;28;20031;-77
2023/03/21 01:56:30;;;;;;;0.30;0.30;;;9.20;94.80;;;;;;4978981;28;20022;-78
2023/03/21 01:59:05;;;;;;;0.15;0.15;;;9.20;94.80;;;;;;4999395;28;20080;-77
2023/03/21 02:01:33;;;;;;;0.32;0.32;;;9.20;94.80;;;;;;5011655;28;20451;-77
2023/03/21 02:04:02;;;;;;;0.22;0.22;;;9.20;94.80;;;;;;5009476;28;20041;-77
2023/03/21 02:06:47;;;;;;;0.30;0.30;;;9.20;94.80;;;;;;5028857;28;20040;-76
2023/03/21 02:09:17;;;;;;;0.52;0.43;;;9.20;94.80;;;;;;5028487;28;20045;-77
2023/03/21 02:11:45;;;;;;;0.40;0.40;;;9.20;94.80;;;;;;5029738;28;20045;-77
2023/03/21 02:14:16;;;;;;;0.50;0.50;;;9.10;94.80;;;;;;5026393;28;20018;-77
2023/03/21 02:16:47;;;;;;;0.50;0.50;;;9.10;94.90;;;;;;5024772;28;20021;-77
2023/03/21 02:19:31;;;;;;;0.35;0.35;;;9.10;95.00;;;;;;5024551;28;20026;-78
2023/03/21 02:22:00;;;;;;;0.38;0.38;;;9.10;95.00;;;;;;5003049;28;20030;-77
2023/03/21 02:24:56;;;;;;;0.30;0.30;;;9.10;95.10;;;;;;4999007;28;20050;-78
2023/03/21 02:27:24;;;;;;;0.35;0.35;;;9.10;95.10;;;;;;4999599;28;20383;-78
2023/03/21 02:30:14;;;;;;;0.30;0.30;;;9.10;95.10;;;;;;5006667;28;20105;-77
2023/03/21 02:33:01;;;;;;;0.17;0.17;;;9.10;95.10;;;;;;4980435;28;20488;-78
2023/03/21 02:36:09;;;;;;;0.40;0.40;;;9.10;95.10;;;;;;4981617;28;20408;-78
2023/03/21 02:38:55;;;;;;;0.40;0.40;;;9.10;95.20;;;;;;4980234;28;20484;-76
2023/03/21 02:41:28;;;;;;;0.63;0.43;;;9.20;95.20;;;;;;4969917;28;20022;-77
2023/03/21 02:43:57;;;;;;;0.45;0.40;;;9.20;95.10;;;;;;4982327;28;20022;-78
2023/03/21 02:46:41;;;;;;;0.30;0.30;;;9.20;95.10;;;;;;4999250;28;20033;-78
2023/03/21 02:49:26;;;;;;;0.32;0.32;;;9.10;95.10;;;;;;5007684;28;20074;-77
2023/03/21 02:51:58;;;;;;;0.30;0.30;;;9.20;95.00;;;;;;4976986;28;20523;-78
2023/03/21 02:54:26;;;;;;;0.20;0.20;;;9.20;95.10;;;;;;4979564;28;20510;-78
2023/03/21 02:56:54;;;;;;;0.73;0.40;;;9.20;95.10;;;;;;4979545;28;20027;-77
2023/03/21 02:59:22;;;;;;;0.90;0.60;;;9.20;95.00;;;;;;5000934;28;20037;-77
2023/03/21 03:01:51;;;;;;;0.65;0.60;;;9.20;94.90;;;;;;5009543;28;20026;-78
2023/03/21 03:04:27;;;;;;;1.30;0.82;;;9.20;94.80;;;;;;4999008;28;20057;-78
2023/03/21 03:07:04;;;;;;;0.68;0.43;;;9.20;94.80;;;;;;5030438;22;20042;-75
2023/03/21 03:10:07;;;;;;;0.80;0.80;;;9.20;94.70;;;;;;5040489;28;20516;-75
2023/03/21 03:12:53;;;;;;;0.98;0.40;;;9.20;94.60;;;;;;5054172;28;20412;-75
2023/03/21 03:15:55;;;;;;;0.70;0.70;;;9.20;94.60;;;;;;5057190;28;20037;-75
2023/03/21 03:18:37;;;;;;;0.30;0.30;;;9.20;94.60;;;;;;5035055;28;20100;-75
2023/03/21 03:21:08;;;;;;;0.35;0.35;;;9.20;94.50;;;;;;5017698;28;20367;-75
2023/03/21 03:24:06;;;;;;;0.38;0.38;;;9.30;94.50;;;;;;4996693;28;20036;-74
2023/03/21 03:26:50;;;;;;;0.40;0.40;;;9.30;94.50;;;;;;4997099;28;20129;-74
2023/03/21 03:29:17;;;;;;;0.43;0.43;;;9.30;94.50;;;;;;5010377;28;20026;-76
2023/03/21 03:31:55;;;;;;;0.50;0.50;;;9.30;94.40;;;;;;5034102;28;20079;-75
2023/03/21 03:34:25;;;;;;;0.50;0.50;;;9.30;94.30;;;;;;5021715;28;20030;-75
2023/03/21 03:36:55;;;;;;;0.52;0.52;;;9.20;94.30;;;;;;5054335;28;20001;-75
2023/03/21 03:39:28;;;;;;;0.65;0.60;;;9.20;94.30;;;;;;5036433;28;20040;-76
2023/03/21 03:42:00;;;;;;;0.40;0.40;;;9.20;94.30;;;;;;5035097;28;20033;-76
2023/03/21 03:44:27;;;;;;;0.20;0.20;;;9.20;94.30;;;;;;5019030;28;20021;-76
2023/03/21 03:47:19;;;;;;;0.60;0.60;;;9.20;94.30;;;;;;5034161;28;20098;-76
2023/03/21 03:50:08;;;;;;;0.50;0.50;;;9.20;94.20;;;;;;5034462;28;20022;-76
2023/03/21 03:52:41;;;;;;;0.47;0.47;;;9.20;94.00;;;;;;4995217;28;20092;-76
2023/03/21 03:55:10;;;;;;;0.40;0.40;;;9.30;94.10;;;;;;4992917;28;20558;-76
2023/03/21 03:57:36;;;;;;;0.45;0.45;;;9.20;94.10;;;;;;5009900;28;20538;-76
2023/03/21 04:00:08;;;;;;;0.30;0.30;;;9.20;94.10;;;;;;5015513;28;20095;-74
2023/03/21 04:02:33;;;;;;;0.50;0.38;;;9.30;94.10;;;;;;5019682;28;20483;-76
2023/03/21 04:05:00;;;;;;;0.43;0.43;;;9.30;94.10;;;;;;5032846;28;20076;-76
2023/03/21 04:07:26;;;;;;;0.43;0.43;;;9.30;94.00;;;;;;5033173;28;20525;-75
2023/03/21 04:09:52;;;;;;;0.60;0.60;;;9.30;93.90;;;;;;5033572;28;20105;-75
2023/03/21 04:12:18;;;;;;;0.50;0.50;;;9.30;93.90;;;;;;5014312;28;20065;-75
2023/03/21 04:14:43;;;;;;;0.55;0.55;;;9.30;93.70;;;;;;5033214;28;20028;-75
2023/03/21 04:17:10;;;;;;;0.60;0.60;;;9.30;93.70;;;;;;5032754;28;20060;-75
2023/03/21 04:19:35;;;;;;;0.70;0.70;;;9.30;93.70;;;;;;5017773;28;20056;-75
2023/03/21 04:22:01;;;;;;;1.00;0.77;;;9.20;93.60;;;;;;5037425;28;20029;-74
2023/03/21 04:24:27;;;;;;;0.80;0.80;;;9.20;93.60;;;;;;5037165;28;20036;-75
2023/03/21 04:26:52;;;;;;;1.42;1.27;;;9.20;93.60;;;;;;5039109;28;20512;-75
2023/03/21 04:29:19;;;;;;;0.95;0.90;;;9.20;93.60;;;;;;5013581;28;20371;-75
2023/03/21 04:31:45;;;;;;;1.17;1.00;;;9.20;93.60;;;;;;5016120;28;20048;-73
2023/03/21 04:34:11;;;;;;;1.80;1.70;;;9.10;93.50;;;;;;5037675;28;20018;-73
2023/03/21 04:36:46;;;;;;;1.95;1.02;;;9.10;93.50;;;;;;5038915;28;20024;-74
2023/03/21 04:39:13;;;;;;;1.30;1.20;;;9.10;93.60;;;;;;5039729;28;20025;-74
2023/03/21 04:41:41;;;;;;;0.80;0.80;;;9.00;93.70;;;;;;5037622;28;20026;-74
2023/03/21 04:44:07;;;;;;;0.52;0.52;;;9.10;93.80;;;;;;5025088;28;20026;-75
2023/03/21 04:46:33;;;;;;;0.75;0.75;;;9.00;93.80;;;;;;5004064;28;20018;-73
2023/03/21 04:48:59;;;;;;;0.50;0.50;;;9.00;93.80;;;;;;5025975;28;20022;-74
2023/03/21 04:51:25;;;;;;;0.50;0.50;;;9.00;93.80;;;;;;5010876;28;20040;-74
2023/03/21 04:53:51;;;;;;;0.60;0.60;;;9.00;93.80;;;;;;5043739;28;20044;-74
2023/03/21 04:56:17;;;;;;;0.85;0.85;;;9.00;93.80;;;;;;5046071;28;20040;-73
2023/03/21 04:58:44;;;;;;;0.57;0.47;;;9.00;93.80;;;;;;5020843;28;20050;-74
2023/03/21 05:01:13;;;;;;;0.43;0.43;;;9.00;93.90;;;;;;5010542;28;20026;-74
2023/03/21 05:03:39;;;;;;;0.95;0.65;;;9.00;93.90;;;;;;5047796;28;20343;-73
2023/03/21 05:06:08;;;;;;;0.43;0.43;;;9.00;93.80;;;;;;5051132;28;20017;-73
2023/03/21 05:08:37;;;;;;;0.60;0.60;;;9.00;93.90;;;;;;5051675;28;20220;-73
2023/03/21 05:11:03;;;;;;;0.85;0.85;;;9.10;93.90;;;;;;5048200;28;20044;-73
2023/03/21 05:13:29;;;;;;;0.40;0.40;;;9.10;93.80;;;;;;5041578;28;20066;-73
2023/03/21 05:15:55;;;;;;;0.70;0.70;;;9.10;93.80;;;;;;5035129;28;20109;-74
2023/03/21 05:18:23;;;;;;;0.50;0.50;;;9.10;93.90;;;;;;5033701;28;20014;-73
2023/03/21 05:20:52;;;;;;;0.50;0.50;;;9.10;93.80;;;;;;5043101;28;20026;-75
2023/03/21 05:23:19;;;;;;;1.42;0.50;;;9.10;93.90;;;;;;5025057;28;20026;-74
2023/03/21 05:25:45;;;;;;;0.50;0.50;;;9.20;93.80;;;;;;5037888;28;20448;-74
2023/03/21 05:28:11;;;;;;;0.40;0.40;;;9.20;93.80;;;;;;5019210;28;20120;-75
2023/03/21 05:30:36;;;;;;;0.73;0.43;;;9.20;93.70;;;;;;5034893;28;20056;-75
2023/03/21 05:33:02;;;;;;;0.40;0.40;;;9.20;93.70;;;;;;5033640;28;20022;-77
2023/03/21 05:35:28;;;;;;;0.70;0.70;;;9.20;93.70;;;;;;5001128;28;20159;-78
2023/03/21 05:37:54;;;;;;;0.70;0.70;;;9.20;93.70;;;;;;5022657;28;20030;-77
2023/03/21 05:40:20;;;;;;;0.90;0.52;;;9.20;93.80;;;;;;5023636;28;20029;-75
2023/03/21 05:42:47;;;;;;;0.60;0.60;;;9.20;94.00;;;;;;5024422;28;20104;-76
2023/03/21 05:45:14;;;;;;;0.35;0.35;;;9.30;94.10;;;;;;5024854;28;20557;-76
2023/03/21 05:47:39;;;;;;;0.68;0.50;;;9.30;94.30;;;;;;5025825;28;20041;-77
2023/03/21 05:50:05;;;;;;;0.43;0.40;;;9.30;94.40;;;;;;5028278;28;20024;-76
2023/03/21 05:52:32;;;;;;;0.50;0.50;;;9.30;94.50;;;;;;5013939;28;20041;-77
2023/03/21 05:54:58;;;;;;;0.50;0.50;;;9.30;94.60;;;;;;5008170;28;20497;-76
2023/03/21 05:57:27;;;;;;;0.68;0.50;;;9.30;94.60;;;;;;5001847;28;20030;-76
2023/03/21 05:59:53;;;;;;;0.55;0.55;;;9.30;94.60;;;;;;5005210;28;20038;-76
2023/03/21 06:02:19;;;;;;;0.40;0.40;;;9.40;94.60;;;;;;5001728;28;20014;-78
2023/03/21 06:04:45;;;;;;;0.52;0.52;;;9.40;94.50;;;;;;5024587;28;20419;-79
2023/03/21 06:07:10;;;;;;;0.70;0.50;;;9.50;94.40;;;;;;5019888;28;20040;-78
2023/03/21 06:09:36;;;;;;;0.75;0.50;;;9.50;94.30;;;;;;5020750;28;20034;-79
2023/03/21 06:12:01;;;;;;;0.63;0.50;;;9.50;94.40;;;;;;4999640;28;20022;-77
2023/03/21 06:14:27;;;;;;;0.50;0.50;;;9.60;94.40;;;;;;5003225;28;20530;-78
2023/03/21 06:16:53;;;;;;;0.60;0.50;;;9.70;94.30;;;;;;5028207;28;20025;-78
2023/03/21 06:19:20;;;;;;;0.47;0.30;;;9.80;94.10;;;;;;5000674;28;20026;-78
2023/03/21 06:21:47;;;;;;;0.60;0.55;;;10.00;93.90;;;;;;5027659;28;20022;-79
2023/03/21 06:24:12;;;;;;;0.50;0.50;;;10.00;93.30;;;;;;5000882;28;20529;-78
2023/03/21 06:26:38;;;;;;;0.50;0.50;;;10.10;93.00;;;;;;5020840;28;20050;-79
2023/03/21 06:29:04;;;;;;;0.93;0.50;;;10.20;92.80;;;;;;5023270;28;20017;-81
2023/03/21 06:31:30;;;;;;;0.50;0.50;;;10.30;92.40;;;;;;5003986;28;20110;-82
2023/03/21 06:33:56;;;;;;;0.50;0.47;;;10.30;92.10;;;;;;5020933;28;20530;-79
2023/03/21 06:36:21;;;;;;;0.43;0.43;;;10.40;91.90;;;;;;4999359;28;20030;-77
2023/03/21 06:38:47;;;;;;;0.65;0.57;;;10.40;91.80;;;;;;5032860;28;20029;-78
2023/03/21 06:41:15;;;;;;;0.50;0.50;;;10.40;91.60;;;;;;5040190;28;20056;-80
2023/03/21 06:43:41;;;;;;;0.40;0.40;;;10.40;91.60;;;;;;5038690;28;20413;-76
2023/03/21 06:46:06;;;;;;;0.55;0.50;;;10.50;91.40;;;;;;5054700;28;20024;-76
2023/03/21 06:48:32;;;;;;;0.60;0.60;;;10.50;91.40;;;;;;5043678;28;20025;-79
2023/03/21 06:50:58;;;;;;;0.93;0.70;;;10.50;91.00;;;;;;5030829;28;20030;-78
2023/03/21 06:53:26;;;;;;;0.68;0.60;;;10.50;90.90;;;;;;5032649;28;20104;-78
2023/03/21 06:55:53;;;;;;;0.52;0.52;;;10.50;91.00;;;;;;5035083;28;20021;-78
2023/03/21 06:58:19;;;;;;;0.70;0.60;;;10.60;90.90;;;;;;5025541;28;20036;-78
2023/03/21 07:00:45;;;;;;;0.40;0.40;;;10.60;90.90;;;;;;5038698;28;20056;-79
2023/03/21 07:03:12;;;;;;;0.70;0.70;;;10.70;90.60;;;;;;5041577;28;20034;-78
2023/03/21 07:05:39;;;;;;;0.63;0.63;;;10.80;90.30;;;;;;5037775;28;20091;-79
2023/03/21 07:08:09;;;;;;;0.90;0.65;;;10.90;90.20;;;;;;5018746;28;20615;-78
2023/03/21 07:10:38;;;;;;;1.08;0.82;;;10.90;90.10;;;;;;4999570;28;20033;-78
2023/03/21 07:13:13;;;;;;;0.77;0.77;;;10.90;89.80;;;;;;5003525;28;20057;-76
2023/03/21 07:15:47;;;;;;;1.17;1.00;;;11.00;89.50;;;;;;4997679;28;20109;-76
2023/03/21 07:18:13;;;;;;;1.95;1.63;;;11.00;89.00;;;;;;5019823;28;20644;-77
2023/03/21 07:20:39;;;;;;;1.65;1.42;;;11.10;88.60;;;;;;5034541;28;20041;-78
2023/03/21 07:23:06;;;;;;;1.58;1.27;;;11.20;88.10;;;;;;4998779;28;20060;-77
2023/03/21 07:25:32;;;;;;;2.17;1.63;;;11.30;87.70;;;;;;5008339;28;20030;-76
2023/03/21 07:27:57;;;;;;;1.58;1.40;;;11.40;86.90;;;;;;5002165;28;20065;-76
2023/03/21 07:30:24;;;;;;;2.15;1.48;;;11.40;86.80;;;;;;5020437;28;20041;-77
2023/03/21 07:32:49;;;;;;;1.83;1.10;;;11.50;87.20;;;;;;4999915;28;20033;-76
2023/03/21 07:35:16;;;;;;;1.58;1.00;;;11.60;87.20;;;;;;4999548;28;20022;-78
2023/03/21 07:37:42;;;;;;;1.98;1.45;;;11.70;86.50;;;;;;5016884;28;20406;-76
2023/03/21 07:40:09;;;;;;;1.50;1.08;;;11.80;85.30;;;;;;5016473;28;20057;-76
2023/03/21 07:42:39;;;;;;;1.92;0.98;;;11.70;85.00;;;;;;5000918;28;20083;-76
2023/03/21 07:45:06;;;;;;;0.80;0.80;;;11.70;85.20;;;;;;5029056;28;20060;-76
2023/03/21 07:47:32;;;;;;;0.60;0.60;;;11.80;84.90;;;;;;5036157;28;20032;-76
2023/03/21 07:49:59;;;;;;;0.77;0.77;;;11.90;84.20;;;;;;5025480;28;20068;-76
2023/03/21 07:52:26;;;;;;;0.90;0.90;;;12.10;84.10;;;;;;5026200;28;20021;-77
2023/03/21 07:54:52;;;;;;;1.35;1.25;;;12.20;83.40;;;;;;5034993;28;20033;-75
2023/03/21 07:57:17;;;;;;;0.88;0.82;;;12.30;82.80;;;;;;5030106;28;20022;-76
2023/03/21 07:59:43;;;;;;;0.70;0.70;;;12.40;82.50;;;;;;5016586;28;20030;-77
2023/03/21 08:02:18;;;;;;;1.15;0.90;;;12.50;82.20;;;;;;4998705;28;20479;-77
2023/03/21 08:04:44;;;;;;;1.17;0.75;;;12.50;81.40;;;;;;5020334;28;20044;-77
2023/03/21 08:07:10;;;;;;;1.27;0.95;;;12.40;81.30;;;;;;5030017;28;20029;-77
2023/03/21 08:09:36;;;;;;;0.73;0.73;;;12.40;81.20;;;;;;5016597;28;20034;-77
2023/03/21 08:12:03;;;;;;;0.93;0.70;;;12.50;81.40;;;;;;5016505;28;20032;-77
2023/03/21 08:14:29;;;;;;;0.75;0.70;;;12.60;81.10;;;;;;5001323;28;20079;-77
2023/03/21 08:16:54;;;;;;;0.77;0.63;;;12.60;80.60;;;;;;5037241;28;20030;-77
2023/03/21 08:19:20;;;;;;;2.13;1.05;;;12.60;80.20;;;;;;5031488;28;20032;-75
2023/03/21 08:21:50;;;;;;;0.60;0.60;;;12.50;80.10;;;;;;5016729;28;20413;-77
2023/03/21 08:24:16;;;;;;;0.63;0.63;;;12.50;80.50;;;;;;5016598;28;20025;-75
2023/03/21 08:26:43;;;;;;;0.80;0.80;;;12.70;80.40;;;;;;5015449;28;20018;-76
2023/03/21 08:29:09;;;;;;;1.30;1.20;;;12.70;79.30;;;;;;5016139;28;20022;-76
2023/03/21 08:31:40;;;;;;;1.63;1.15;;;12.70;79.30;;;;;;5018947;28;20026;-76
2023/03/21 08:34:06;;;;;;;2.42;1.20;;;12.80;79.20;;;;;;4995959;28;20041;-75
2023/03/21 08:36:35;;;;;;;1.10;0.82;;;12.80;79.30;;;;;;5025823;28;20026;-77
2023/03/21 08:39:04;;;;;;;2.13;0.80;;;13.00;79.40;;;;;;5036974;28;20021;-77
2023/03/21 08:41:31;;;;;;;0.50;0.50;;;;;;;;;;5033979;28;20026;-75
2023/03/21 08:43:57;;;;;;;0.40;0.40;;;13.40;77.70;;;;;;5047406;28;20018;-73
2023/03/21 08:46:22;;;;;;;0.40;0.40;;;13.50;77.30;;;;;;5018130;28;20108;-77
2023/03/21 08:48:48;;;;;;;0.35;0.35;;;13.70;76.50;;;;;;5017363;28;20038;-75
2023/03/21 08:51:14;;;;;;;0.57;0.57;;;13.80;75.90;;;;;;5022436;28;20041;-77
2023/03/21 08:53:40;;;;;;;0.60;0.60;;;13.80;75.40;;;;;;5032246;28;20017;-76
2023/03/21 08:56:06;;;;;;;0.70;0.70;;;13.90;74.80;;;;;;5036291;28;20029;-76
2023/03/21 08:58:32;;;;;;;1.38;1.10;;;13.90;73.70;;;;;;5037920;28;20032;-77
2023/03/21 09:00:58;;;;;;;0.70;0.70;;;13.90;73.00;;;;;;5017606;28;20390;-74
2023/03/21 09:03:26;;;;;;;0.75;0.75;;;14.10;72.90;;;;;;5017587;28;20018;-76
2023/03/21 09:05:54;;;;;;;0.60;0.60;;;14.20;72.30;;;;;;5015440;28;20026;-76
2023/03/21 09:08:22;;;;;;;0.50;0.50;;;14.30;71.70;;;;;;5019335;28;20018;-77
2023/03/21 09:10:57;;;;;;;0.35;0.35;;;14.40;71.20;;;;;;5018137;28;20025;-76
2023/03/21 09:13:23;;;;;;;0.57;0.57;;;14.40;70.80;;;;;;5023056;28;20050;-75
2023/03/21 09:15:49;;;;;;;1.00;0.60;;;14.50;70.30;;;;;;5021309;28;20053;-76
2023/03/21 09:18:16;;;;;;;0.50;0.50;;;14.50;69.50;;;;;;5000776;28;20470;-76
2023/03/21 09:20:45;;;;;;;0.57;0.57;;;14.60;69.10;;;;;;5028739;28;20057;-75
2023/03/21 09:23:13;;;;;;;0.57;0.57;;;14.70;68.80;;;;;;5014310;28;20072;-75
2023/03/21 09:25:40;;;;;;;0.57;0.57;;;14.80;68.00;;;;;;5038549;28;20025;-75
2023/03/21 09:28:06;;;;;;;0.60;0.60;;;14.90;67.40;;;;;;5038450;28;20101;-76
2023/03/21 09:30:34;;;;;;;0.77;0.77;;;14.80;67.00;;;;;;5032260;28;20034;-75
2023/03/21 09:33:05;;;;;;;0.90;0.90;;;14.70;67.10;;;;;;5017528;28;20084;-75
2023/03/21 09:35:31;;;;;;;1.27;0.60;;;14.70;67.60;;;;;;5018849;28;20209;-76
2023/03/21 09:37:58;;;;;;;1.13;1.05;;;14.90;67.10;;;;;;5018327;28;20132;-75
2023/03/21 09:40:51;;;;;;;0.80;0.70;;;15.10;66.20;;;;;;5026977;28;20057;-76
2023/03/21 09:43:48;;;;;;;0.73;0.60;;;15.20;66.60;;;;;;5028984;28;20104;-75
2023/03/21 09:46:29;;;;;;;0.82;0.80;;;15.40;65.90;;;;;;5018259;28;20029;-76
2023/03/21 09:49:08;;;;;;;0.75;0.70;;;15.50;65.30;;;;;;5017979;28;20030;-77
2023/03/21 09:51:40;;;;;;;0.52;0.52;;;15.60;64.90;;;;;;5029986;28;20033;-77
2023/03/21 09:56:37;;;;;;;0.50;0.50;;;15.70;65.00;;;;;;4986921;28;20061;-78
2023/03/21 09:59:06;;;;;;;0.60;0.60;;;15.70;64.60;;;;;;4984455;28;20065;-77
2023/03/21 10:01:34;;;;;;;0.40;0.40;;;15.70;64.70;;;;;;4984952;28;20027;-79
2023/03/21 10:04:04;;;;;;;0.55;0.47;;;15.80;64.30;;;;;;4983390;28;20023;-78
2023/03/21 10:06:31;;;;;;;0.50;0.43;;;16.00;63.60;;;;;;4991271;28;20027;-75
2023/03/21 10:09:01;;;;;;;0.82;0.80;;;16.10;62.60;;;;;;4996928;28;20019;-79
2023/03/21 10:11:49;;;;;;;0.77;0.77;;;16.20;62.00;;;;;;4983976;28;20031;-79
2023/03/21 10:14:20;;;;;;;2.53;0.80;;;16.10;61.80;;;;;;4973008;28;20018;-79
2023/03/21 10:16:51;;;;;;;0.77;0.60;;;16.00;62.00;;;;;;4982715;28;20392;-78
2023/03/21 10:19:19;;;;;;;0.45;0.45;;;16.00;62.20;;;;;;4983224;28;20018;-78
2023/03/21 10:21:49;;;;;;;0.50;0.50;;;16.00;61.70;;;;;;4984675;28;20083;-80
2023/03/21 10:24:27;;;;;;;0.63;0.60;;;16.10;61.80;;;;;;4983911;28;20106;-77
2023/03/21 10:26:53;;;;;;;0.80;0.80;;;16.10;61.50;;;;;;4985448;28;20475;-80
2023/03/21 10:29:26;;;;;;;0.70;0.70;;;16.20;61.10;;;;;;4984261;28;20027;-78
2023/03/21 10:31:54;;;;;;;1.35;0.88;;;16.40;61.40;;;;;;4992014;28;20042;-77
2023/03/21 10:34:35;;;;;;;0.75;0.57;;;16.60;60.70;;;;;;4993133;28;20030;-77
2023/03/21 10:37:03;;;;;;;0.73;0.73;;;16.70;60.20;;;;;;4997990;28;20019;-76
2023/03/21 10:39:42;;;;;;;0.80;0.80;;;16.80;59.50;;;;;;4987164;28;20031;-78
2023/03/21 10:42:23;;;;;;;0.52;0.52;;;16.80;59.50;;;;;;4990759;28;20023;-77
2023/03/21 10:44:55;;;;;;;1.02;0.82;;;16.80;59.60;;;;;;4971665;28;20023;-77
2023/03/21 10:47:32;;;;;;;0.50;0.47;;;16.80;59.60;;;;;;4967150;28;20035;-78
2023/03/21 10:50:06;;;;;;;0.52;0.40;;;17.00;59.00;;;;;;4977974;28;20046;-79
2023/03/21 10:52:33;;;;;;;0.70;0.55;;;17.00;58.80;;;;;;4985857;28;20038;-82
2023/03/21 10:55:31;;;;;;;0.75;0.40;;;17.10;59.50;;;;;;4983806;28;20027;-79
2023/03/21 10:58:17;;;;;;;0.40;0.30;;;17.30;58.40;;;;;;4976423;28;20022;-78
2023/03/21 11:00:44;;;;;;;0.30;0.30;;;17.20;57.60;;;;;;5001208;28;20147;-79
2023/03/21 11:03:23;;;;;;;0.22;0.22;;;17.00;58.20;;;;;;4990339;28;20018;-78
2023/03/21 11:05:54;;;;;;;0.47;0.47;;;17.20;58.30;;;;;;4983579;28;20054;-79
2023/03/21 11:08:20;;;;;;;0.38;0.38;;;17.30;58.00;;;;;;4983456;28;20097;-79
2023/03/21 11:10:51;;;;;;;1.00;0.90;;;17.50;57.50;;;;;;4983360;28;20046;-78
2023/03/21 11:13:39;;;;;;;0.40;0.40;;;17.50;56.80;;;;;;4983427;28;20031;-78
2023/03/21 11:16:09;;;;;;;1.50;1.40;;;17.60;56.80;;;;;;4971036;28;20035;-76
2023/03/21 11:18:41;;;;;;;2.20;1.40;;;17.60;55.80;;;;;;4990923;28;20396;-79
2023/03/21 11:21:13;;;;;;;1.65;1.55;;;17.40;56.60;;;;;;4984059;28;20022;-78
2023/03/21 11:23:47;;;;;;;1.97;1.30;;;17.40;56.30;;;;;;4984050;28;20030;-79
2023/03/21 11:26:25;;;;;;;1.00;0.85;;;17.40;56.70;;;;;;4985161;28;20031;-79
2023/03/21 11:28:52;;;;;;;1.33;0.80;;;17.50;57.00;;;;;;5000623;28;20102;-78
2023/03/21 11:31:18;;;;;;;0.70;0.70;;;17.60;56.50;;;;;;5002440;28;20029;-78
2023/03/21 11:33:55;;;;;;;0.73;0.73;;;17.60;56.50;;;;;;4994358;28;20006;-76
2023/03/21 11:36:21;;;;;;;4.40;1.00;;;17.70;57.00;;;;;;4984944;28;20165;-79
2023/03/21 11:38:50;;;;;;;0.93;0.70;;;17.70;56.00;;;;;;4983861;28;20031;-79
2023/03/21 11:41:31;;;;;;;1.65;1.40;;;17.80;56.60;;;;;;4983062;28;20098;-78
2023/03/21 11:43:58;;;;;;;2.22;1.13;;;18.20;55.70;;;;;;4982848;28;20073;-80
2023/03/21 11:46:27;;;;;;;1.20;1.00;;;18.30;54.60;;;;;;4990633;28;20018;-77
2023/03/21 11:48:54;;;;;;;0.70;0.70;;;18.10;54.70;;;;;;4990585;28;20439;-77
2023/03/21 11:51:20;;;;;;;0.60;0.60;;;18.00;55.30;;;;;;4991501;28;20098;-76
2023/03/21 11:54:14;;;;;;;0.80;0.63;;;18.10;55.60;;;;;;4990316;28;20103;-79
2023/03/21 11:57:23;;;;;;;0.30;0.30;;;18.20;55.30;;;;;;4990113;28;20038;-80
2023/03/21 12:00:12;;;;;;;0.68;0.50;;;18.50;54.70;;;;;;4976137;28;20099;-81
2023/03/21 12:03:11;;;;;;;1.13;1.00;;;18.60;54.70;;;;;;4991713;28;20023;-80
2023/03/21 12:05:49;;;;;;;1.23;1.08;;;18.30;53.80;;;;;;4988467;28;20030;-77
2023/03/21 12:08:40;;;;;;;0.60;0.60;;;17.90;54.30;;;;;;4986542;28;20019;-79
2023/03/21 12:11:32;;;;;;;2.15;0.77;;;17.80;54.80;;;;;;4982149;28;20033;-76
2023/03/21 12:14:06;;;;;;;;;;;17.90;54.60;;;;;;4981972;28;20031;-80
2023/03/21 12:16:52;;;;;;;0.30;0.30;;;18.10;54.30;;;;;;4986083;28;19910;-79
2023/03/21 12:19:29;;;;;;;0.40;0.40;;;18.30;53.70;;;;;;4983953;28;20042;-78
2023/03/21 12:22:29;;;;;;;1.25;0.60;;;18.40;53.10;;;;;;4998011;28;20031;-82
2023/03/21 12:25:08;;;;;;;1.75;1.17;;;18.40;52.70;;;;;;4984256;28;20027;-79
2023/03/21 12:27:45;;;;;;;1.33;1.02;;;18.30;52.50;;;;;;4983957;28;20034;-80
2023/03/21 12:30:34;;;;;;;1.25;0.75;;;18.10;53.00;;;;;;4985200;28;20098;-77
2023/03/21 12:33:12;;;;;;;1.10;1.00;;;18.10;52.80;;;;;;4989729;28;20030;-77
2023/03/21 12:36:09;;;;;;;0.95;0.60;;;18.20;52.70;;;;;;4986141;28;20027;-79
2023/03/21 12:38:57;;;;;;;0.60;0.60;;;18.40;52.80;;;;;;4986885;28;20089;-77
2023/03/21 12:41:27;;;;;;;0.50;0.50;;;18.60;52.30;;;;;;4993790;28;20026;-78
2023/03/21 12:44:09;;;;;;;0.60;0.60;;;18.70;52.00;;;;;;4985082;28;20030;-78
2023/03/21 12:46:59;;;;;;;0.83;0.83;;;18.90;51.20;;;;;;5003000;28;20027;-83
2023/03/21 12:49:36;;;;;;;0.50;0.50;;;19.00;50.60;;;;;;4985517;28;20019;-79
2023/03/21 12:52:11;;;;;;;0.30;0.30;;;19.00;51.10;;;;;;4987878;28;20026;-78
2023/03/21 12:54:43;;;;;;;0.55;0.55;;;19.10;51.10;;;;;;4987255;28;20623;-78
2023/03/21 12:57:34;;;;;;;0.30;0.30;;;19.30;50.70;;;;;;4988990;28;20026;-81
2023/03/21 13:00:12;;;;;;;0.68;0.50;;;19.60;50.30;;;;;;4985560;28;20054;-78
2023/03/21 13:03:02;;;;;;;1.05;0.40;;;19.80;49.80;;;;;;4981747;28;20507;-78
2023/03/21 13:05:41;;;;;;;1.65;0.70;;;19.90;49.50;;;;;;4988029;28;20031;-79
2023/03/21 13:08:27;;;;;;;0.50;0.50;;;19.80;48.50;;;;;;4986409;28;20034;-82
2023/03/21 13:10:54;;;;;;;0.65;0.30;;;19.50;47.90;;;;;;4985567;28;20027;-78
2023/03/21 13:13:46;;;;;;;0.50;0.50;;;19.50;48.10;;;;;;4985661;28;20041;-77
2023/03/21 13:16:22;;;;;;;0.70;0.70;;;19.50;48.00;;;;;;4987789;28;20050;-80